Time;durP1;ratioP1;P1;durP2;ratioP2;P2;SDS_P1;SDS_P2;PMS_P1;PMS_P2;Temp;Humidity;BMP_temperature;BMP_pressure;BME280_temperature;BME280_humidity;BME280_pressure;Samples;Min_cycle;Max_cycle;Signal;HPM_P1;HPM_P2
2023/09/09 00:00:56;;;;;;;18.45;16.35;;;22.30;99.90;;;;;;5069709;28;20053;-65
2023/09/09 00:03:42;;;;;;;20.70;16.23;;;22.20;99.90;;;;;;5069262;28;20040;-66
2023/09/09 00:06:22;;;;;;;18.77;16.83;;;22.10;99.90;;;;;;5067064;28;20063;-65
2023/09/09 00:09:08;;;;;;;17.15;15.40;;;22.10;99.90;;;;;;5050037;28;20064;-66
2023/09/09 00:11:48;;;;;;;18.17;16.30;;;22.10;99.90;;;;;;5049869;28;20111;-66
2023/09/09 00:14:34;;;;;;;18.67;16.77;;;22.10;99.90;;;;;;5049585;28;20053;-66
2023/09/09 00:17:14;;;;;;;18.50;16.45;;;22.10;99.90;;;;;;5058164;28;20147;-66
2023/09/09 00:20:00;;;;;;;18.10;16.20;;;22.00;99.90;;;;;;5069784;28;20048;-65
2023/09/09 00:22:40;;;;;;;17.77;15.98;;;22.00;99.90;;;;;;5069681;28;20072;-66
2023/09/09 00:25:26;;;;;;;18.17;16.27;;;22.00;99.90;;;;;;5069363;28;20041;-67
2023/09/09 00:28:06;;;;;;;17.75;15.88;;;21.90;99.90;;;;;;5067425;28;20098;-66
2023/09/09 00:30:53;;;;;;;18.20;16.40;;;22.00;99.90;;;;;;5069036;28;20040;-65
2023/09/09 00:33:33;;;;;;;17.38;15.32;;;21.80;99.90;;;;;;5069457;28;20082;-66
2023/09/09 00:36:19;;;;;;;17.65;15.85;;;21.80;99.90;;;;;;5067333;28;20053;-67
2023/09/09 00:39:00;;;;;;;17.42;15.63;;;21.80;99.90;;;;;;5049354;28;20063;-65
2023/09/09 00:41:45;;;;;;;18.05;16.25;;;21.70;99.90;;;;;;5049103;28;20049;-65
2023/09/09 00:44:25;;;;;;;19.25;16.05;;;21.70;99.90;;;;;;5061505;28;20121;-66
2023/09/09 00:47:11;;;;;;;17.55;15.68;;;21.60;99.90;;;;;;5056932;28;20070;-67
2023/09/09 00:49:51;;;;;;;19.58;17.42;;;21.60;99.90;;;;;;5072797;28;20070;-65
2023/09/09 00:52:41;;;;;;;21.23;17.55;;;21.60;99.90;;;;;;5068864;28;20064;-66
2023/09/09 00:55:39;;;;;;;19.77;17.67;;;21.50;99.90;;;;;;5048931;28;20037;-66
2023/09/09 00:58:24;;;;;;;20.67;18.67;;;21.40;99.90;;;;;;5067246;28;20044;-65
2023/09/09 01:01:05;;;;;;;20.90;18.83;;;21.40;99.90;;;;;;5069455;28;20089;-67
2023/09/09 01:03:53;;;;;;;20.65;18.58;;;21.40;99.90;;;;;;5069238;28;20072;-66
2023/09/09 01:06:32;;;;;;;18.13;16.27;;;21.30;99.90;;;;;;5068563;28;20055;-65
2023/09/09 01:09:18;;;;;;;18.40;16.52;;;21.30;99.90;;;;;;5068922;28;20449;-65
2023/09/09 01:11:59;;;;;;;18.20;16.33;;;21.20;99.90;;;;;;5069198;28;20053;-65
2023/09/09 01:14:45;;;;;;;17.42;15.63;;;21.20;99.90;;;;;;5069018;28;20059;-66
2023/09/09 01:17:25;;;;;;;18.80;16.92;;;21.20;99.90;;;;;;5059812;28;20480;-66
2023/09/09 01:20:14;;;;;;;20.02;18.00;;;21.10;99.90;;;;;;5053131;28;20068;-65
2023/09/09 01:22:54;;;;;;;20.77;18.58;;;21.00;99.90;;;;;;5053194;28;20061;-66
2023/09/09 01:25:40;;;;;;;20.02;17.95;;;21.00;99.90;;;;;;5053114;28;20044;-65
2023/09/09 01:28:22;;;;;;;20.90;18.70;;;20.90;99.90;;;;;;5070614;28;20048;-66
2023/09/09 01:31:08;;;;;;;22.50;19.25;;;20.90;99.90;;;;;;5072613;28;20056;-65
2023/09/09 01:33:47;;;;;;;21.75;19.35;;;20.90;99.90;;;;;;5073106;28;20048;-66
2023/09/09 01:36:33;;;;;;;21.33;19.05;;;20.80;99.90;;;;;;5069612;28;20369;-66
2023/09/09 01:39:13;;;;;;;21.15;18.98;;;20.80;99.90;;;;;;5053196;28;20049;-66
2023/09/09 01:41:59;;;;;;;21.77;19.48;;;20.80;99.90;;;;;;5053588;28;20342;-66
2023/09/09 01:44:39;;;;;;;21.30;19.10;;;20.80;99.90;;;;;;5052238;28;20450;-66
2023/09/09 01:47:25;;;;;;;22.67;20.35;;;20.70;99.90;;;;;;5062385;28;20060;-66
2023/09/09 01:50:05;;;;;;;23.50;20.13;;;20.70;99.90;;;;;;5072552;28;20388;-65
2023/09/09 01:52:51;;;;;;;22.25;19.98;;;20.70;99.90;;;;;;5072525;28;20365;-65
2023/09/09 01:55:44;;;;;;;22.27;19.88;;;20.70;99.90;;;;;;5051795;28;20048;-66
2023/09/09 01:58:30;;;;;;;23.88;20.90;;;20.70;99.90;;;;;;5051971;28;20060;-67
2023/09/09 02:01:10;;;;;;;23.17;20.70;;;20.60;99.90;;;;;;5052182;28;20413;-64
2023/09/09 02:03:56;;;;;;;25.08;22.38;;;20.50;99.90;;;;;;5052583;28;20041;-65
2023/09/09 02:06:36;;;;;;;25.63;22.27;;;20.60;99.90;;;;;;5052355;28;20048;-65
2023/09/09 02:09:22;;;;;;;26.10;23.60;;;20.60;99.90;;;;;;5051813;28;20056;-65
2023/09/09 02:12:03;;;;;;;26.23;23.42;;;20.50;99.90;;;;;;5052415;28;20053;-65
2023/09/09 02:14:48;;;;;;;25.80;23.13;;;20.50;99.90;;;;;;5051116;28;20060;-66
2023/09/09 02:17:28;;;;;;;27.38;23.33;;;20.40;99.90;;;;;;5052379;28;20083;-66
2023/09/09 02:20:14;;;;;;;26.58;23.75;;;20.30;99.90;;;;;;5052198;28;20056;-65
2023/09/09 02:22:54;;;;;;;25.98;23.25;;;20.30;99.90;;;;;;5052418;28;20114;-66
2023/09/09 02:25:40;;;;;;;26.27;23.48;;;20.30;99.90;;;;;;5051338;28;20532;-65
2023/09/09 02:28:20;;;;;;;27.42;24.63;;;20.20;99.90;;;;;;5052158;28;20381;-65
2023/09/09 02:31:06;;;;;;;27.17;24.38;;;20.20;99.90;;;;;;5051715;28;20048;-65
2023/09/09 02:33:46;;;;;;;27.42;24.38;;;20.10;99.90;;;;;;5051158;28;20059;-67
2023/09/09 02:36:32;;;;;;;26.48;23.67;;;20.00;99.90;;;;;;5044049;28;20362;-66
2023/09/09 02:39:12;;;;;;;27.08;24.30;;;20.00;99.90;;;;;;5052208;28;20056;-66
2023/09/09 02:41:58;;;;;;;26.83;24.20;;;20.00;99.90;;;;;;5052064;28;20056;-66
2023/09/09 02:44:38;;;;;;;26.85;24.15;;;20.00;99.90;;;;;;5051684;28;20238;-66
2023/09/09 02:47:24;;;;;;;25.92;23.25;;;19.90;99.90;;;;;;5051565;28;20052;-66
2023/09/09 02:50:04;;;;;;;25.58;22.88;;;19.90;99.90;;;;;;5052016;28;20465;-66
2023/09/09 02:52:50;;;;;;;28.05;25.05;;;20.00;99.90;;;;;;5051816;28;20041;-65
2023/09/09 02:55:30;;;;;;;25.63;22.90;;;19.90;99.90;;;;;;5070940;28;20063;-66
2023/09/09 02:58:16;;;;;;;26.52;23.15;;;19.90;99.90;;;;;;5070573;28;20063;-65
2023/09/09 03:00:56;;;;;;;26.13;23.35;;;19.90;99.90;;;;;;5071837;28;20048;-66
2023/09/09 03:03:42;;;;;;;26.10;23.40;;;20.00;99.90;;;;;;5071154;28;20055;-67
2023/09/09 03:06:22;;;;;;;24.50;21.90;;;19.90;99.90;;;;;;5071299;28;20405;-65
2023/09/09 03:09:09;;;;;;;25.75;22.25;;;19.80;99.90;;;;;;5071304;28;20398;-65
2023/09/09 03:11:48;;;;;;;25.70;23.00;;;19.80;99.90;;;;;;5071761;28;20370;-65
2023/09/09 03:14:34;;;;;;;25.15;22.45;;;19.80;99.90;;;;;;5070959;28;20071;-66
2023/09/09 03:17:14;;;;;;;26.40;22.88;;;19.80;99.90;;;;;;5071164;28;20055;-66
2023/09/09 03:20:00;;;;;;;26.48;23.73;;;19.80;99.90;;;;;;5071382;28;20068;-65
2023/09/09 03:22:40;;;;;;;25.27;22.67;;;19.80;99.90;;;;;;5071016;28;20105;-66
2023/09/09 03:25:27;;;;;;;26.95;22.30;;;19.80;99.90;;;;;;5070595;28;20361;-65
2023/09/09 03:28:07;;;;;;;24.08;21.63;;;19.70;99.90;;;;;;5070044;28;20441;-65
2023/09/09 03:30:55;;;;;;;27.52;22.98;;;19.70;99.90;;;;;;5070759;28;20048;-67
2023/09/09 03:33:34;;;;;;;24.73;22.17;;;19.60;99.90;;;;;;5070858;28;20102;-67
2023/09/09 03:36:21;;;;;;;24.45;21.92;;;19.70;99.90;;;;;;5070829;28;20474;-66
2023/09/09 03:39:03;;;;;;;24.08;21.48;;;19.70;99.90;;;;;;5070929;28;20110;-66
2023/09/09 03:41:48;;;;;;;23.20;20.67;;;19.70;99.90;;;;;;5070419;28;20059;-65
2023/09/09 03:44:28;;;;;;;24.88;22.27;;;19.60;99.90;;;;;;5070998;28;20368;-67
2023/09/09 03:47:14;;;;;;;25.95;22.08;;;19.60;99.90;;;;;;5067855;28;20048;-66
2023/09/09 03:49:56;;;;;;;24.73;20.60;;;19.60;99.90;;;;;;5061661;28;20056;-66
2023/09/09 03:52:42;;;;;;;23.90;21.40;;;19.60;99.90;;;;;;5067761;28;20328;-65
2023/09/09 03:55:22;;;;;;;24.52;21.92;;;19.60;99.90;;;;;;5052792;28;20157;-65
2023/09/09 03:58:08;;;;;;;24.58;21.83;;;19.60;99.90;;;;;;5048222;28;20051;-65
2023/09/09 04:00:48;;;;;;;24.73;22.05;;;19.60;99.90;;;;;;5048804;28;20060;-65
2023/09/09 04:03:35;;;;;;;23.25;20.75;;;19.50;99.90;;;;;;5039791;28;20123;-65
2023/09/09 04:06:19;;;;;;;24.65;21.60;;;19.50;99.90;;;;;;5049391;28;20057;-66
2023/09/09 04:09:04;;;;;;;;;;;19.50;99.90;;;;;;5012669;28;20068;-68
2023/09/09 04:11:44;;;;;;;24.55;21.88;;;19.50;99.90;;;;;;5029818;28;19929;-67
2023/09/09 04:14:30;;;;;;;25.42;22.48;;;19.40;99.90;;;;;;5028831;28;20056;-65
2023/09/09 04:17:10;;;;;;;24.95;22.20;;;19.40;99.90;;;;;;5036591;28;20343;-64
2023/09/09 04:19:57;;;;;;;25.52;22.80;;;19.40;99.90;;;;;;5049920;28;20386;-65
2023/09/09 04:22:36;;;;;;;24.38;21.77;;;19.50;99.90;;;;;;5050312;28;20381;-65
2023/09/09 04:25:22;;;;;;;24.65;22.17;;;19.40;99.90;;;;;;5050027;28;20045;-66
2023/09/09 04:28:02;;;;;;;24.45;21.88;;;19.40;99.90;;;;;;5050434;28;20072;-65
2023/09/09 04:30:48;;;;;;;24.23;21.52;;;19.30;99.90;;;;;;5050365;28;20060;-64
2023/09/09 04:33:28;;;;;;;24.17;21.45;;;19.30;99.90;;;;;;5050194;28;20375;-65
2023/09/09 04:36:14;;;;;;;24.75;22.15;;;19.30;99.90;;;;;;5050144;28;20045;-65
2023/09/09 04:38:54;;;;;;;24.05;21.55;;;19.30;99.90;;;;;;5049997;28;20059;-65
2023/09/09 04:41:44;;;;;;;23.00;20.63;;;19.30;99.90;;;;;;5050714;28;20056;-65
2023/09/09 04:44:23;;;;;;;24.65;22.02;;;19.20;99.90;;;;;;5050439;28;20040;-66
2023/09/09 04:47:09;;;;;;;24.25;21.52;;;19.10;99.90;;;;;;5049379;28;20040;-66
2023/09/09 04:49:49;;;;;;;25.63;23.00;;;19.20;99.90;;;;;;5050163;28;20048;-66
2023/09/09 04:52:36;;;;;;;24.42;21.88;;;19.10;99.90;;;;;;5049840;28;20123;-66
2023/09/09 04:55:15;;;;;;;24.45;21.88;;;19.10;99.90;;;;;;5065633;28;20052;-66
2023/09/09 04:58:02;;;;;;;23.77;21.20;;;19.10;99.90;;;;;;5056676;28;20458;-64
2023/09/09 05:00:42;;;;;;;25.52;22.67;;;19.00;99.90;;;;;;5050675;28;20118;-64
2023/09/09 05:03:28;;;;;;;26.02;23.38;;;19.10;99.90;;;;;;5050736;28;20056;-66
2023/09/09 05:06:08;;;;;;;25.67;22.98;;;19.10;99.90;;;;;;5069801;28;20096;-64
2023/09/09 05:08:55;;;;;;;26.23;23.52;;;19.00;99.90;;;;;;5030024;28;20350;-65
2023/09/09 05:11:34;;;;;;;24.15;21.55;;;19.00;99.90;;;;;;5030275;28;20111;-65
2023/09/09 05:14:21;;;;;;;26.88;23.33;;;19.00;99.90;;;;;;5029641;28;20065;-65
2023/09/09 05:17:00;;;;;;;24.48;21.88;;;19.10;99.90;;;;;;5034994;28;20041;-65
2023/09/09 05:19:47;;;;;;;27.85;23.38;;;19.00;99.90;;;;;;5049733;28;20045;-66
2023/09/09 05:22:26;;;;;;;24.65;22.08;;;19.00;99.90;;;;;;5049460;28;20065;-66
2023/09/09 05:25:13;;;;;;;30.27;23.10;;;19.00;99.90;;;;;;5049779;28;20060;-65
2023/09/09 05:27:52;;;;;;;27.13;23.23;;;19.10;99.90;;;;;;5050420;28;20057;-67
2023/09/09 05:30:40;;;;;;;27.42;23.55;;;19.10;99.90;;;;;;5049596;28;20052;-66
2023/09/09 05:33:19;;;;;;;25.55;22.95;;;19.10;99.90;;;;;;5049956;28;20052;-66
2023/09/09 05:36:06;;;;;;;27.77;24.92;;;19.20;99.90;;;;;;5049013;28;20353;-66
2023/09/09 05:38:45;;;;;;;26.77;23.90;;;19.20;99.90;;;;;;5049043;28;20637;-67
2023/09/09 05:41:32;;;;;;;26.95;24.13;;;19.20;99.90;;;;;;5055853;28;20052;-67
2023/09/09 05:44:11;;;;;;;27.10;24.30;;;19.20;99.90;;;;;;5069276;28;20434;-66
2023/09/09 05:46:58;;;;;;;27.45;24.50;;;19.50;99.90;;;;;;5068053;28;20059;-66
2023/09/09 05:49:37;;;;;;;25.55;22.88;;;20.00;99.90;;;;;;5068664;28;20442;-66
2023/09/09 05:52:24;;;;;;;25.73;23.13;;;20.50;99.90;;;;;;5068381;28;20048;-66
2023/09/09 05:55:03;;;;;;;25.27;22.65;;;20.80;99.90;;;;;;5056508;28;20082;-66
2023/09/09 05:57:50;;;;;;;28.05;25.23;;;21.20;99.90;;;;;;5031824;28;20045;-66
2023/09/09 06:00:29;;;;;;;29.10;25.38;;;21.50;99.90;;;;;;5048929;28;20052;-67
2023/09/09 06:03:16;;;;;;;28.23;25.40;;;21.90;99.90;;;;;;5048304;28;20037;-67
2023/09/09 06:05:55;;;;;;;28.55;25.75;;;22.20;99.90;;;;;;5051399;28;20053;-65
2023/09/09 06:08:42;;;;;;;26.25;23.45;;;22.40;99.90;;;;;;5051407;28;20056;-66
2023/09/09 06:11:21;;;;;;;25.52;22.83;;;22.70;99.90;;;;;;5052130;28;20049;-66
2023/09/09 06:14:08;;;;;;;28.13;25.13;;;23.00;99.90;;;;;;5051663;28;20045;-66
2023/09/09 06:16:47;;;;;;;27.67;24.83;;;23.20;99.90;;;;;;5051921;28;20060;-65
2023/09/09 06:19:34;;;;;;;28.08;25.10;;;23.40;99.90;;;;;;5045833;28;20041;-67
2023/09/09 06:22:13;;;;;;;28.52;25.52;;;23.40;99.90;;;;;;5052245;28;20110;-66
2023/09/09 06:25:00;;;;;;;28.88;25.83;;;23.40;99.90;;;;;;5051484;28;20369;-66
2023/09/09 06:27:39;;;;;;;29.52;26.45;;;23.40;99.90;;;;;;5051582;28;20053;-66
2023/09/09 06:30:26;;;;;;;28.00;25.08;;;23.40;99.90;;;;;;5052117;28;20064;-66
2023/09/09 06:33:05;;;;;;;29.50;26.42;;;23.60;99.90;;;;;;5052213;28;20373;-66
2023/09/09 06:35:53;;;;;;;28.90;26.05;;;23.70;99.90;;;;;;5051421;28;20138;-66
2023/09/09 06:38:32;;;;;;;29.45;26.50;;;23.70;99.90;;;;;;5051994;28;20049;-65
2023/09/09 06:41:19;;;;;;;28.95;26.02;;;23.90;99.90;;;;;;5052176;28;20049;-66
2023/09/09 06:43:58;;;;;;;31.08;27.80;;;23.90;99.90;;;;;;5052223;28;20048;-66
2023/09/09 06:46:45;;;;;;;30.35;27.35;;;24.00;99.90;;;;;;5051533;28;20045;-66
2023/09/09 06:49:24;;;;;;;28.95;25.92;;;24.20;99.90;;;;;;5052426;28;20072;-65
2023/09/09 06:52:11;;;;;;;30.50;27.40;;;24.20;99.90;;;;;;5030292;28;20465;-66
2023/09/09 06:54:50;;;;;;;30.95;27.88;;;24.40;99.90;;;;;;5043535;28;20052;-66
2023/09/09 06:57:37;;;;;;;32.25;28.90;;;24.40;99.90;;;;;;5048201;28;20270;-66
2023/09/09 07:00:16;;;;;;;31.73;28.52;;;23.90;99.90;;;;;;5050214;28;20116;-66
2023/09/09 07:03:04;;;;;;;35.40;31.00;;;23.70;99.90;;;;;;5049247;28;20045;-65
2023/09/09 07:05:43;;;;;;;38.08;31.23;;;23.10;99.90;;;;;;5048965;28;20041;-67
2023/09/09 07:08:30;;;;;;;36.05;31.50;;;23.00;99.90;;;;;;5051126;28;20060;-66
2023/09/09 07:11:09;;;;;;;36.25;30.50;;;22.80;99.90;;;;;;5052145;28;20373;-66
2023/09/09 07:13:56;;;;;;;33.45;29.70;;;22.80;99.90;;;;;;5051824;28;20056;-66
2023/09/09 07:16:35;;;;;;;34.38;30.05;;;22.80;99.90;;;;;;5057335;28;20053;-65
2023/09/09 07:19:22;;;;;;;35.22;30.52;;;22.70;99.90;;;;;;5062077;28;20432;-66
2023/09/09 07:22:01;;;;;;;34.05;30.55;;;22.90;99.90;;;;;;5058628;28;20045;-66
2023/09/09 07:24:48;;;;;;;34.15;30.50;;;22.90;99.90;;;;;;5057114;28;20056;-67
2023/09/09 07:27:27;;;;;;;33.97;30.27;;;22.80;99.90;;;;;;5055204;28;20080;-66
2023/09/09 07:30:14;;;;;;;35.88;31.08;;;22.80;99.90;;;;;;5041188;28;20060;-65
2023/09/09 07:32:53;;;;;;;35.38;31.00;;;22.80;99.90;;;;;;5051246;28;20057;-67
2023/09/09 07:35:40;;;;;;;39.70;32.70;;;22.80;99.90;;;;;;5051048;28;20044;-65
2023/09/09 07:38:19;;;;;;;36.08;31.48;;;22.90;99.90;;;;;;5051454;28;20056;-66
2023/09/09 07:41:06;;;;;;;38.17;33.92;;;22.80;99.90;;;;;;5059989;28;20131;-67
2023/09/09 07:43:47;;;;;;;38.92;32.50;;;22.90;99.90;;;;;;5070915;28;20498;-67
2023/09/09 07:46:34;;;;;;;35.50;31.65;;;22.90;99.90;;;;;;5070318;28;20060;-66
2023/09/09 07:49:13;;;;;;;37.72;32.83;;;22.90;99.90;;;;;;5032357;28;20470;-65
2023/09/09 07:52:00;;;;;;;36.65;32.70;;;23.00;99.90;;;;;;5051726;28;20049;-66
2023/09/09 07:54:40;;;;;;;37.60;33.65;;;23.20;99.90;;;;;;5058574;28;20056;-66
2023/09/09 07:57:27;;;;;;;36.28;31.75;;;23.10;99.90;;;;;;5063942;28;20063;-67
2023/09/09 08:00:07;;;;;;;35.78;31.88;;;23.20;99.90;;;;;;5071014;28;20423;-67
2023/09/09 08:02:53;;;;;;;36.15;31.95;;;23.10;99.90;;;;;;5070247;28;20094;-65
2023/09/09 08:05:32;;;;;;;37.53;32.08;;;23.20;99.90;;;;;;5070704;28;20045;-66
2023/09/09 08:08:19;;;;;;;36.10;32.17;;;23.30;99.90;;;;;;5070755;28;20418;-66
2023/09/09 08:10:58;;;;;;;35.63;30.98;;;23.40;99.90;;;;;;5071517;28;20109;-66
2023/09/09 08:13:45;;;;;;;37.47;31.77;;;23.40;99.90;;;;;;5071054;28;20079;-67
2023/09/09 08:16:24;;;;;;;38.38;33.97;;;23.50;99.90;;;;;;5065111;28;20074;-66
2023/09/09 08:19:11;;;;;;;36.40;32.13;;;23.40;99.90;;;;;;5056167;28;20044;-65
2023/09/09 08:21:51;;;;;;;38.75;33.55;;;23.40;99.90;;;;;;5038942;28;20342;-66
2023/09/09 08:24:37;;;;;;;36.78;32.80;;;23.40;99.90;;;;;;5071201;28;20357;-66
2023/09/09 08:27:16;;;;;;;38.70;33.17;;;23.50;99.90;;;;;;5071057;28;20041;-67
2023/09/09 08:30:03;;;;;;;39.47;33.58;;;23.50;99.90;;;;;;5071771;28;20064;-66
2023/09/09 08:32:43;;;;;;;38.67;33.92;;;23.60;99.90;;;;;;5071743;28;20730;-68
2023/09/09 08:35:32;;;;;;;37.65;33.70;;;23.70;99.90;;;;;;5071314;28;20052;-66
2023/09/09 08:38:11;;;;;;;37.72;33.72;;;23.70;99.90;;;;;;5071204;28;20076;-66
2023/09/09 08:41:08;;;;;;;42.03;34.88;;;23.60;99.90;;;;;;5071756;28;20044;-66
2023/09/09 08:43:54;;;;;;;40.47;35.42;;;23.70;99.90;;;;;;5071366;28;20048;-65
2023/09/09 08:46:44;;;;;;;42.03;36.30;;;23.90;99.90;;;;;;5070452;28;20124;-66
2023/09/09 08:49:25;;;;;;;41.85;37.03;;;23.90;99.90;;;;;;5071402;28;20110;-65
2023/09/09 08:52:24;;;;;;;41.15;36.67;;;24.00;99.90;;;;;;5055012;28;20052;-66
2023/09/09 08:55:10;;;;;;;43.35;38.58;;;24.10;99.90;;;;;;5066034;28;20053;-66
2023/09/09 08:57:57;;;;;;;45.28;39.05;;;23.90;99.90;;;;;;5073433;28;20035;-66
2023/09/09 09:00:40;;;;;;;42.90;38.10;;;23.90;99.90;;;;;;5073947;28;20385;-65
2023/09/09 09:03:27;;;;;;;45.33;39.25;;;24.10;99.90;;;;;;5091352;28;20044;-66
2023/09/09 09:06:10;;;;;;;44.10;39.42;;;24.00;99.90;;;;;;5090768;28;20078;-66
2023/09/09 09:08:56;;;;;;;45.10;40.00;;;24.00;99.90;;;;;;5091077;28;20052;-66
2023/09/09 09:11:35;;;;;;;42.78;38.03;;;24.10;99.90;;;;;;5090438;28;20048;-66
2023/09/09 09:14:22;;;;;;;47.75;38.72;;;24.10;99.90;;;;;;5082656;28;20044;-66
2023/09/09 09:17:02;;;;;;;44.38;39.13;;;24.20;99.90;;;;;;5091228;28;20055;-66
2023/09/09 09:19:48;;;;;;;43.42;38.67;;;24.40;99.90;;;;;;5090680;28;20048;-67
2023/09/09 09:22:30;;;;;;;44.55;39.75;;;24.30;99.90;;;;;;5037785;28;20095;-66
2023/09/09 09:25:21;;;;;;;45.22;39.30;;;24.40;99.90;;;;;;5085632;28;20059;-67
2023/09/09 09:28:03;;;;;;;47.78;40.80;;;24.60;99.90;;;;;;5079339;28;20669;-67
2023/09/09 09:30:50;;;;;;;47.25;42.15;;;24.60;99.90;;;;;;5090756;28;20059;-66
2023/09/09 09:33:29;;;;;;;51.63;43.42;;;24.80;99.90;;;;;;5090710;28;20452;-67
2023/09/09 09:36:19;;;;;;;53.53;46.03;;;24.90;99.90;;;;;;5090871;28;20052;-67
2023/09/09 09:39:00;;;;;;;51.55;44.50;;;24.90;99.90;;;;;;5069838;28;20138;-67
2023/09/09 09:41:49;;;;;;;52.17;44.20;;;25.10;99.90;;;;;;5070831;28;20105;-66
2023/09/09 09:44:29;;;;;;;48.28;42.95;;;25.20;99.90;;;;;;5074476;28;20056;-66
2023/09/09 09:47:15;;;;;;;50.08;44.10;;;25.20;99.90;;;;;;5080538;28;20396;-65
2023/09/09 09:49:56;;;;;;;50.55;43.00;;;25.20;99.90;;;;;;5071385;28;20102;-65
2023/09/09 09:52:47;;;;;;;49.58;41.42;;;25.50;99.90;;;;;;5028019;28;20041;-65
2023/09/09 09:55:27;;;;;;;43.30;38.25;;;25.50;99.90;;;;;;5061960;28;20122;-66
2023/09/09 09:58:13;;;;;;;45.35;39.08;;;25.60;99.90;;;;;;5065795;28;20037;-66
2023/09/09 10:00:53;;;;;;;47.67;41.80;;;25.60;99.90;;;;;;5071416;28;20044;-66
2023/09/09 10:03:57;;;;;;;50.65;45.13;;;25.70;99.90;;;;;;5084012;28;20072;-67
2023/09/09 10:06:41;;;;;;;52.45;43.42;;;25.70;99.90;;;;;;5084771;28;20443;-65
2023/09/09 10:09:41;;;;;;;53.70;43.10;;;25.70;99.90;;;;;;5069782;28;20383;-65
2023/09/09 10:12:27;;;;;;;54.05;44.67;;;25.70;99.90;;;;;;5085994;28;20326;-65
2023/09/09 10:15:15;;;;;;;54.63;46.38;;;25.80;99.90;;;;;;5077265;28;20476;-66
2023/09/09 10:18:00;;;;;;;56.40;47.00;;;25.90;99.90;;;;;;5084347;28;20036;-65
2023/09/09 10:20:46;;;;;;;58.42;46.33;;;26.00;99.90;;;;;;5090196;28;20376;-67
2023/09/09 10:23:28;;;;;;;52.00;43.78;;;26.10;99.90;;;;;;5092369;28;20117;-66
2023/09/09 10:26:17;;;;;;;49.63;40.38;;;26.10;99.90;;;;;;5093140;28;20048;-66
2023/09/09 10:29:01;;;;;;;35.90;31.42;;;26.20;99.90;;;;;;5081478;28;20376;-66
2023/09/09 10:31:49;;;;;;;32.15;25.77;;;26.30;99.90;;;;;;5093108;28;20386;-66
2023/09/09 10:34:30;;;;;;;25.92;23.15;;;26.30;99.90;;;;;;5075917;28;20055;-67
2023/09/09 10:37:18;;;;;;;26.63;22.90;;;26.50;99.90;;;;;;5088216;28;20371;-67
2023/09/09 10:39:58;;;;;;;26.30;23.33;;;26.60;99.90;;;;;;5071729;28;20364;-66
2023/09/09 10:42:45;;;;;;;24.77;21.38;;;26.60;99.90;;;;;;5079909;28;20056;-67
2023/09/09 10:45:33;;;;;;;24.40;19.73;;;26.70;99.90;;;;;;5075953;28;20083;-66
2023/09/09 10:48:13;;;;;;;23.55;18.25;;;26.80;99.90;;;;;;5073846;28;20048;-67
2023/09/09 10:51:00;;;;;;;17.00;15.20;;;26.80;99.90;;;;;;5072900;28;20044;-67
2023/09/09 10:53:39;;;;;;;14.68;13.07;;;26.80;99.90;;;;;;5073492;28;20049;-67
2023/09/09 10:56:25;;;;;;;15.57;13.50;;;26.80;99.90;;;;;;5073664;28;20334;-67
2023/09/09 10:59:24;;;;;;;13.50;12.13;;;26.80;99.90;;;;;;5073619;28;20045;-65
2023/09/09 11:02:25;;;;;;;13.52;12.13;;;26.90;99.90;;;;;;5057031;28;20119;-67
2023/09/09 11:05:12;;;;;;;13.30;11.73;;;27.10;99.90;;;;;;5072543;28;20061;-67
2023/09/09 11:07:58;;;;;;;12.65;11.32;;;27.10;99.90;;;;;;5071178;28;20048;-66
2023/09/09 11:10:37;;;;;;;12.65;11.35;;;27.10;99.90;;;;;;5073154;28;20048;-67
2023/09/09 11:13:23;;;;;;;14.27;12.40;;;27.20;99.90;;;;;;5093963;28;20063;-65
2023/09/09 11:16:02;;;;;;;15.75;11.57;;;27.30;99.90;;;;;;5093250;28;20453;-66
2023/09/09 11:18:48;;;;;;;13.05;11.52;;;27.20;99.90;;;;;;5091631;28;20044;-66
2023/09/09 11:21:29;;;;;;;12.32;10.13;;;27.20;99.90;;;;;;5063744;28;20082;-65
2023/09/09 11:24:15;;;;;;;11.60;10.00;;;27.30;99.90;;;;;;5070617;28;20369;-67
2023/09/09 11:26:55;;;;;;;12.00;10.68;;;27.30;99.90;;;;;;5070379;28;20044;-66
2023/09/09 11:29:41;;;;;;;13.02;11.15;;;27.20;99.90;;;;;;5071415;28;20059;-66
2023/09/09 11:32:28;;;;;;;11.95;10.75;;;27.20;99.90;;;;;;5070804;28;20044;-66
2023/09/09 11:35:16;;;;;;;13.88;12.32;;;27.30;99.90;;;;;;5070032;28;20048;-66
2023/09/09 11:38:04;;;;;;;14.00;12.15;;;27.40;99.90;;;;;;5069751;28;20044;-66
2023/09/09 11:40:53;;;;;;;14.35;11.63;;;27.50;99.90;;;;;;5070011;28;20410;-67
2023/09/09 11:43:32;;;;;;;14.77;12.43;;;27.60;99.90;;;;;;5070004;28;20334;-66
2023/09/09 11:46:19;;;;;;;14.60;12.73;;;27.70;99.90;;;;;;5070209;28;20040;-66
2023/09/09 11:48:58;;;;;;;14.85;13.32;;;27.50;99.90;;;;;;5069775;28;20302;-66
2023/09/09 11:51:45;;;;;;;13.55;11.73;;;27.40;99.90;;;;;;5072159;28;20064;-67
2023/09/09 11:54:24;;;;;;;14.52;13.05;;;27.50;99.90;;;;;;5085974;27;20127;-66
2023/09/09 11:57:12;;;;;;;16.52;14.30;;;27.70;99.90;;;;;;5086667;28;20055;-66
2023/09/09 11:59:51;;;;;;;16.40;14.70;;;27.60;99.90;;;;;;5069671;28;20093;-67
2023/09/09 12:02:37;;;;;;;14.40;11.45;;;27.60;99.90;;;;;;5072783;28;20072;-66
2023/09/09 12:05:16;;;;;;;11.40;10.27;;;27.70;99.90;;;;;;5080412;28;20109;-67
2023/09/09 12:08:07;;;;;;;12.73;10.68;;;27.70;99.90;;;;;;5072604;28;20059;-66
2023/09/09 12:10:47;;;;;;;13.07;11.60;;;27.80;99.90;;;;;;5083701;28;20549;-66
2023/09/09 12:13:33;;;;;;;14.57;10.85;;;27.90;99.90;;;;;;5090085;28;20112;-65
2023/09/09 12:16:14;;;;;;;13.02;11.20;;;28.00;99.90;;;;;;5090174;28;20044;-66
2023/09/09 12:18:59;;;;;;;13.82;12.43;;;28.00;99.90;;;;;;5087059;28;20473;-65
2023/09/09 12:21:48;;;;;;;13.15;11.77;;;27.90;99.90;;;;;;5081732;28;20045;-65
2023/09/09 12:24:34;;;;;;;11.30;10.20;;;27.80;99.90;;;;;;5068208;28;20032;-66
2023/09/09 12:27:13;;;;;;;11.18;10.00;;;27.90;99.90;;;;;;5065978;28;20469;-66
2023/09/09 12:29:59;;;;;;;11.60;9.93;;;28.10;99.90;;;;;;5076875;28;20067;-66
2023/09/09 12:32:38;;;;;;;13.65;10.93;;;28.10;99.90;;;;;;5076265;28;20517;-66
2023/09/09 12:35:25;;;;;;;13.50;11.35;;;28.10;99.90;;;;;;5078229;28;20058;-66
2023/09/09 12:38:05;;;;;;;10.60;9.60;;;28.10;99.90;;;;;;5074438;28;20032;-66
2023/09/09 12:41:11;;;;;;;11.25;9.98;;;28.10;99.90;;;;;;5061900;28;20337;-66
2023/09/09 12:43:51;;;;;;;11.35;9.25;;;27.90;99.90;;;;;;5068472;28;20055;-66
2023/09/09 12:46:37;;;;;;;10.02;8.00;;;27.90;99.90;;;;;;5069149;28;20055;-66
2023/09/09 12:49:16;;;;;;;11.00;9.90;;;28.00;99.90;;;;;;5069283;28;20052;-67
2023/09/09 12:52:02;;;;;;;11.73;9.60;;;28.00;99.90;;;;;;5068770;28;20056;-66
2023/09/09 12:54:41;;;;;;;11.90;9.10;;;28.10;99.90;;;;;;5065769;28;20060;-67
2023/09/09 12:57:27;;;;;;;14.27;11.23;;;28.00;99.90;;;;;;5046208;28;20293;-66
2023/09/09 13:00:09;;;;;;;11.88;10.00;;;28.10;99.90;;;;;;5060165;28;20052;-67
2023/09/09 13:02:55;;;;;;;12.13;10.80;;;28.20;99.90;;;;;;5068165;28;20154;-66
2023/09/09 13:05:34;;;;;;;11.35;10.25;;;28.10;99.90;;;;;;5052330;28;20102;-66
2023/09/09 13:08:20;;;;;;;12.48;10.50;;;28.10;99.90;;;;;;5055980;28;20052;-66
2023/09/09 13:11:00;;;;;;;15.15;10.48;;;28.00;99.90;;;;;;5048524;28;20434;-65
2023/09/09 13:13:46;;;;;;;13.77;12.32;;;28.20;99.90;;;;;;5059043;28;20392;-66
2023/09/09 13:16:25;;;;;;;13.90;11.35;;;28.10;99.90;;;;;;5058630;28;20048;-66
2023/09/09 13:19:11;;;;;;;13.68;10.15;;;28.10;99.90;;;;;;5058973;28;20477;-66
2023/09/09 13:21:50;;;;;;;11.98;10.20;;;28.20;99.90;;;;;;5061205;28;20052;-66
2023/09/09 13:24:36;;;;;;;11.75;10.65;;;28.30;99.90;;;;;;5061525;28;20080;-67
2023/09/09 13:27:18;;;;;;;13.30;9.95;;;28.40;99.90;;;;;;5062789;28;20048;-66
2023/09/09 13:30:03;;;;;;;12.57;10.25;;;28.50;99.90;;;;;;5041828;28;20037;-65
2023/09/09 13:32:42;;;;;;;11.15;10.05;;;28.40;99.90;;;;;;5051397;28;20048;-66
2023/09/09 13:35:28;;;;;;;11.23;10.02;;;28.50;99.90;;;;;;5052171;28;20460;-66
2023/09/09 13:38:07;;;;;;;13.85;11.05;;;28.60;99.90;;;;;;5053373;28;20045;-66
2023/09/09 13:40:53;;;;;;;14.70;13.30;;;28.50;99.90;;;;;;5052038;28;20641;-66
2023/09/09 13:43:32;;;;;;;13.02;11.68;;;28.60;99.90;;;;;;5051624;28;20053;-66
2023/09/09 13:46:18;;;;;;;13.43;12.07;;;28.50;99.90;;;;;;5051625;28;20462;-66
2023/09/09 13:48:57;;;;;;;13.80;11.88;;;28.50;99.90;;;;;;5051569;28;20114;-66
2023/09/09 13:51:43;;;;;;;13.32;11.27;;;28.50;99.90;;;;;;5051407;28;20048;-66